createdAt,value
2017-08-02T00:01:53.624Z,94.00
2017-08-02T00:04:21.107Z,93.90
2017-08-02T00:06:49.359Z,94.00
2017-08-02T00:09:17.628Z,93.80
2017-08-02T00:11:45.128Z,93.80
2017-08-02T00:14:12.622Z,93.70
2017-08-02T00:16:40.104Z,93.60
2017-08-02T00:19:07.600Z,93.40
2017-08-02T00:21:35.076Z,93.80
2017-08-02T00:24:02.572Z,93.90
2017-08-02T00:26:30.816Z,93.20
2017-08-02T00:28:58.322Z,93.30
2017-08-02T00:31:25.809Z,93.40
2017-08-02T00:33:53.320Z,93.30
2017-08-02T00:36:20.837Z,93.40
2017-08-02T00:38:48.339Z,93.50
2017-08-02T00:41:15.832Z,93.90
2017-08-02T00:43:43.342Z,93.80
2017-08-02T00:46:10.824Z,94.60
2017-08-02T00:48:38.315Z,94.70
2017-08-02T00:51:06.575Z,94.30
2017-08-02T00:53:34.080Z,94.30
2017-08-02T00:56:01.567Z,94.40
2017-08-02T00:58:29.840Z,94.00
2017-08-02T01:00:57.327Z,93.90
2017-08-02T01:03:24.824Z,94.20
2017-08-02T01:05:52.332Z,94.90
2017-08-02T01:08:19.822Z,95.60
2017-08-02T01:10:47.320Z,95.70
2017-08-02T01:13:14.796Z,95.50
2017-08-02T01:15:42.308Z,95.40
2017-08-02T01:18:09.791Z,95.80
2017-08-02T01:20:37.288Z,96.00
2017-08-02T01:23:04.772Z,96.40
2017-08-02T01:25:32.267Z,96.70
2017-08-02T01:27:59.787Z,96.60
2017-08-02T01:30:27.289Z,96.40
2017-08-02T01:32:54.776Z,96.90
2017-08-02T01:35:22.286Z,96.80
2017-08-02T01:37:49.775Z,96.50
2017-08-02T01:40:17.271Z,96.60
2017-08-02T01:42:44.766Z,96.70
2017-08-02T01:45:12.277Z,97.00
2017-08-02T01:47:39.754Z,97.10
2017-08-02T01:50:07.252Z,97.30
2017-08-02T01:52:34.740Z,97.70
2017-08-02T01:55:02.238Z,97.60
2017-08-02T01:57:29.713Z,97.40
2017-08-02T01:59:57.207Z,97.80
2017-08-02T02:02:24.690Z,97.80
2017-08-02T02:04:52.209Z,97.80
2017-08-02T02:07:19.704Z,97.90
2017-08-02T02:09:47.961Z,98.40
2017-08-02T02:12:15.460Z,98.30
2017-08-02T02:14:42.955Z,98.20
2017-08-02T02:17:11.218Z,98.20
2017-08-02T02:19:39.463Z,98.30
2017-08-02T02:22:06.970Z,98.20
2017-08-02T02:24:34.464Z,98.40
2017-08-02T02:27:01.960Z,98.20
2017-08-02T02:29:29.432Z,98.00
2017-08-02T02:31:56.944Z,97.90
2017-08-02T02:34:24.434Z,98.10
2017-08-02T02:36:51.933Z,98.10
2017-08-02T02:39:19.420Z,97.90
2017-08-02T02:41:47.684Z,97.90
2017-08-02T02:44:16.863Z,98.20
2017-08-02T02:46:45.155Z,98.10
2017-08-02T02:49:12.646Z,98.10
2017-08-02T02:51:40.166Z,98.50
2017-08-02T02:54:07.644Z,98.30
2017-08-02T02:56:35.907Z,98.60
2017-08-02T02:59:04.153Z,98.10
2017-08-02T03:01:31.643Z,98.10
2017-08-02T03:03:59.173Z,98.10
2017-08-02T03:06:26.701Z,98.30
2017-08-02T03:08:54.948Z,98.60
2017-08-02T03:11:23.191Z,98.30
2017-08-02T03:13:50.693Z,98.30
2017-08-02T03:16:18.172Z,98.10
2017-08-02T03:18:45.673Z,97.90
2017-08-02T03:21:13.187Z,98.30
2017-08-02T03:23:40.710Z,98.10
2017-08-02T03:26:08.197Z,97.70
2017-08-02T03:28:35.702Z,97.30
2017-08-02T03:31:03.182Z,97.00
2017-08-02T03:33:30.679Z,96.90
2017-08-02T03:35:58.155Z,96.70
2017-08-02T03:38:25.674Z,96.70
2017-08-02T03:40:53.159Z,97.00
2017-08-02T03:43:20.675Z,96.80
2017-08-02T03:45:48.169Z,96.50
2017-08-02T03:48:15.675Z,96.40
2017-08-02T03:50:43.165Z,97.60
2017-08-02T03:53:10.682Z,98.30
2017-08-02T03:55:38.164Z,98.30
2017-08-02T03:58:05.672Z,98.60
2017-08-02T04:00:33.155Z,98.40
2017-08-02T04:03:01.432Z,98.40
2017-08-02T04:05:28.915Z,98.10
2017-08-02T04:07:56.441Z,98.40
2017-08-02T04:10:23.959Z,98.50
2017-08-02T04:12:52.207Z,98.20
2017-08-02T04:15:20.555Z,97.90
2017-08-02T04:17:48.053Z,97.80
2017-08-02T04:20:15.569Z,97.70
2017-08-02T04:22:43.857Z,98.30
2017-08-02T04:25:11.356Z,98.30
2017-08-02T04:27:38.849Z,98.10
2017-08-02T04:30:06.359Z,98.30
2017-08-02T04:32:33.888Z,98.50
2017-08-02T04:35:02.164Z,98.00
2017-08-02T04:37:29.661Z,97.90
2017-08-02T04:39:57.168Z,97.70
2017-08-02T04:42:24.656Z,97.30
2017-08-02T04:44:52.172Z,96.90
2017-08-02T04:47:19.667Z,97.10
2017-08-02T04:49:47.951Z,98.10
2017-08-02T04:52:15.443Z,97.80
2017-08-02T04:54:42.955Z,97.80
2017-08-02T04:57:10.465Z,97.50
2017-08-02T04:59:37.943Z,97.60
2017-08-02T05:02:05.470Z,98.00
2017-08-02T05:04:32.959Z,98.00
2017-08-02T05:07:00.476Z,98.50
2017-08-02T05:09:28.004Z,98.60
2017-08-02T05:11:55.507Z,98.40
2017-08-02T05:14:22.996Z,98.70
2017-08-02T05:16:50.511Z,98.80
2017-08-02T05:19:18.000Z,98.80
2017-08-02T05:21:45.503Z,98.50
2017-08-02T05:24:13.016Z,98.70
2017-08-02T05:26:40.521Z,99.00
2017-08-02T05:29:08.016Z,99.00
2017-08-02T05:31:35.537Z,99.00
2017-08-02T05:34:03.038Z,99.10
2017-08-02T05:36:30.574Z,98.70
2017-08-02T05:38:58.085Z,99.00
2017-08-02T05:41:25.627Z,98.70
2017-08-02T05:43:53.167Z,98.40
2017-08-02T05:46:20.649Z,98.10
2017-08-02T05:48:48.164Z,98.00
2017-08-02T05:51:16.576Z,97.90
2017-08-02T05:53:44.112Z,97.90
2017-08-02T05:56:11.650Z,98.10
2017-08-02T05:58:39.199Z,98.00
2017-08-02T06:01:06.695Z,98.30
2017-08-02T06:03:34.207Z,98.40
2017-08-02T06:06:01.700Z,98.50
2017-08-02T06:08:29.240Z,98.40
2017-08-02T06:10:56.741Z,98.20
2017-08-02T06:13:25.064Z,97.10
2017-08-02T06:15:52.568Z,97.10
2017-08-02T06:18:20.071Z,96.70
2017-08-02T06:20:47.609Z,96.70
2017-08-02T06:23:15.234Z,96.40
2017-08-02T06:25:42.753Z,95.80
2017-08-02T06:28:10.253Z,95.80
2017-08-02T06:30:37.764Z,95.50
2017-08-02T06:33:05.465Z,95.40
2017-08-02T06:35:33.092Z,95.00
2017-08-02T06:38:01.010Z,94.70
2017-08-02T06:40:28.692Z,94.50
2017-08-02T06:42:57.432Z,94.50
2017-08-02T06:45:25.863Z,94.00
2017-08-02T06:47:53.349Z,93.90
2017-08-02T06:50:20.946Z,94.20
2017-08-02T06:52:49.054Z,93.70
2017-08-02T06:55:17.249Z,93.70
2017-08-02T06:57:45.652Z,93.60
2017-08-02T07:00:13.304Z,93.50
2017-08-02T07:02:43.153Z,93.10
2017-08-02T07:05:11.718Z,93.30
2017-08-02T07:07:39.340Z,93.40
2017-08-02T07:10:07.102Z,93.30
2017-08-02T07:12:36.170Z,93.10
2017-08-02T07:15:03.974Z,92.80
2017-08-02T07:17:31.517Z,92.80
2017-08-02T07:19:59.067Z,92.70
2017-08-02T07:22:26.665Z,92.70
2017-08-02T07:24:54.983Z,91.90
2017-08-02T07:27:29.421Z,91.90
2017-08-02T07:29:58.723Z,91.70
2017-08-02T07:32:27.214Z,91.10
2017-08-02T07:34:55.927Z,91.10
2017-08-02T07:37:25.987Z,90.90
2017-08-02T07:39:53.525Z,90.20
2017-08-02T07:42:21.190Z,90.20
2017-08-02T07:44:48.784Z,90.40
2017-08-02T07:47:18.112Z,88.90
2017-08-02T07:49:45.612Z,88.80
2017-08-02T07:52:13.106Z,87.60
2017-08-02T07:54:40.592Z,88.80
2017-08-02T07:57:08.315Z,88.50
2017-08-02T07:59:35.932Z,86.30
2017-08-02T08:02:04.078Z,86.30
2017-08-02T08:04:32.893Z,86.60
2017-08-02T08:07:00.420Z,85.30
2017-08-02T08:09:27.916Z,85.00
2017-08-02T08:11:56.246Z,83.50
2017-08-02T08:14:23.832Z,83.40
2017-08-02T08:16:51.336Z,82.30
2017-08-02T08:19:19.496Z,81.60
2017-08-02T08:21:46.979Z,81.10
2017-08-02T08:24:15.249Z,83.10
2017-08-02T08:26:42.736Z,82.90
2017-08-02T08:29:10.232Z,78.20
2017-08-02T08:31:37.717Z,77.60
2017-08-02T08:34:05.227Z,76.10
2017-08-02T08:36:32.704Z,73.70
2017-08-02T08:39:00.203Z,72.40
2017-08-02T08:41:27.687Z,71.80
2017-08-02T08:43:55.204Z,69.50
2017-08-02T08:46:22.689Z,70.10
2017-08-02T08:48:50.196Z,70.70
2017-08-02T08:51:17.765Z,69.80
2017-08-02T08:53:45.255Z,67.50
2017-08-02T08:56:12.766Z,64.00
2017-08-02T08:58:40.247Z,62.90
2017-08-02T09:01:07.766Z,59.60
2017-08-02T09:03:36.012Z,58.80
2017-08-02T09:06:03.518Z,58.70
2017-08-02T09:08:31.016Z,59.40
2017-08-02T09:10:58.519Z,55.10
2017-08-02T09:13:26.013Z,56.70
2017-08-02T09:15:53.673Z,56.00
2017-08-02T09:18:21.193Z,55.10
2017-08-02T09:20:48.712Z,53.70
2017-08-02T09:23:16.212Z,51.10
2017-08-02T09:25:43.691Z,52.20
2017-08-02T09:28:11.200Z,49.90
2017-08-02T09:30:38.692Z,49.90
2017-08-02T09:33:06.195Z,53.80
2017-08-02T09:35:33.668Z,57.20
2017-08-02T09:38:01.167Z,54.60
2017-08-02T09:40:28.749Z,50.20
2017-08-02T09:42:56.251Z,54.90
2017-08-02T09:45:23.732Z,49.70
2017-08-02T09:47:51.228Z,48.00
2017-08-02T09:50:18.720Z,45.10
2017-08-02T09:52:46.220Z,44.10
2017-08-02T09:55:13.700Z,46.50
2017-08-02T09:57:41.344Z,46.40
2017-08-02T10:00:08.814Z,46.80
2017-08-02T10:02:36.327Z,46.80
2017-08-02T10:05:03.813Z,44.90
2017-08-02T10:07:31.299Z,46.80
2017-08-02T10:09:58.795Z,44.30
2017-08-02T10:12:26.380Z,43.00
2017-08-02T10:14:53.887Z,42.90
2017-08-02T10:17:21.369Z,42.60
2017-08-02T10:19:48.867Z,40.50
2017-08-02T10:22:16.343Z,40.10
2017-08-02T10:24:43.839Z,39.80
2017-08-02T10:27:11.324Z,38.80
2017-08-02T10:29:38.842Z,36.00
2017-08-02T10:32:06.327Z,37.60
2017-08-02T10:34:33.820Z,36.50
2017-08-02T10:37:01.294Z,40.00
2017-08-02T10:39:28.812Z,39.90
2017-08-02T10:41:56.288Z,37.80
2017-08-02T10:44:23.767Z,46.60
2017-08-02T10:46:52.028Z,44.60
2017-08-02T10:49:20.295Z,44.20
2017-08-02T10:51:48.559Z,45.40
2017-08-02T10:54:16.800Z,45.10
2017-08-02T10:56:44.291Z,45.10
2017-08-02T10:59:11.777Z,45.10
2017-08-02T11:01:39.284Z,45.60
2017-08-02T11:04:06.763Z,45.70
2017-08-02T11:06:34.264Z,46.90
2017-08-02T11:09:01.749Z,46.50
2017-08-02T11:11:29.239Z,47.10
2017-08-02T11:13:56.715Z,48.30
2017-08-02T11:16:24.211Z,48.40
2017-08-02T11:18:51.711Z,48.20
2017-08-02T11:21:19.230Z,49.10
2017-08-02T11:23:46.708Z,49.10
2017-08-02T11:26:14.183Z,49.00
2017-08-02T11:28:41.689Z,48.60
2017-08-02T11:31:09.167Z,47.90
2017-08-02T11:33:36.667Z,49.00
2017-08-02T11:36:04.153Z,49.50
2017-08-02T11:38:31.656Z,49.70
2017-08-02T11:40:59.143Z,48.60
2017-08-02T11:43:26.694Z,49.10
2017-08-02T11:45:54.175Z,48.40
2017-08-02T11:48:21.672Z,48.90
2017-08-02T11:50:49.156Z,49.50
2017-08-02T11:53:16.655Z,50.10
2017-08-02T11:55:44.140Z,50.80
2017-08-02T11:58:11.655Z,51.30
2017-08-02T12:00:39.127Z,50.00
2017-08-02T12:03:06.600Z,50.20
2017-08-02T12:05:34.871Z,51.00
2017-08-02T12:08:02.360Z,50.90
2017-08-02T12:10:29.851Z,51.00
2017-08-02T12:12:58.092Z,50.40
2017-08-02T12:15:26.351Z,51.60
2017-08-02T12:17:53.827Z,50.90
2017-08-02T12:20:21.341Z,50.90
2017-08-02T12:22:48.838Z,51.60
2017-08-02T12:25:16.343Z,51.30
2017-08-02T12:27:43.827Z,51.30
2017-08-02T12:30:11.299Z,50.90
2017-08-02T12:32:38.791Z,50.90
2017-08-02T12:35:06.275Z,50.20
2017-08-02T12:37:33.763Z,51.20
2017-08-02T12:40:01.251Z,52.30
2017-08-02T12:42:28.879Z,51.40
2017-08-02T12:44:56.356Z,52.50
2017-08-02T12:47:23.852Z,54.20
2017-08-02T12:49:51.332Z,53.70
2017-08-02T12:52:18.823Z,53.00
2017-08-02T12:54:46.300Z,53.20
2017-08-02T12:57:13.799Z,53.80
2017-08-02T12:59:41.269Z,52.50
2017-08-02T13:02:08.759Z,52.70
2017-08-02T13:04:36.996Z,52.60
2017-08-02T13:07:04.496Z,52.10
2017-08-02T13:09:31.971Z,52.30
2017-08-02T13:11:59.463Z,52.40
2017-08-02T13:14:27.722Z,51.10
2017-08-02T13:16:55.236Z,51.10
2017-08-02T13:19:22.720Z,51.80
2017-08-02T13:21:50.288Z,51.80
2017-08-02T13:24:17.785Z,51.80
2017-08-02T13:26:46.027Z,53.20
2017-08-02T13:29:13.525Z,53.20
2017-08-02T13:31:41.008Z,52.90
2017-08-02T13:34:08.500Z,53.00
2017-08-02T13:36:35.975Z,53.50
2017-08-02T13:39:03.466Z,53.70
2017-08-02T13:41:30.947Z,53.80
2017-08-02T13:43:58.448Z,54.20
2017-08-02T13:46:25.923Z,54.30
2017-08-02T13:48:53.415Z,53.80
2017-08-02T13:51:20.896Z,53.30
2017-08-02T13:53:48.396Z,54.10
2017-08-02T13:56:15.879Z,53.70
2017-08-02T13:58:43.372Z,54.00
2017-08-02T14:01:10.850Z,53.90
2017-08-02T14:03:38.346Z,54.50
2017-08-02T14:06:05.824Z,54.90
2017-08-02T14:08:33.343Z,54.50
2017-08-02T14:11:00.823Z,53.80
2017-08-02T14:13:28.399Z,53.10
2017-08-02T14:15:55.899Z,54.10
2017-08-02T14:18:24.135Z,54.30
2017-08-02T14:20:51.636Z,54.30
2017-08-02T14:23:19.118Z,55.10
2017-08-02T14:25:46.636Z,54.70
2017-08-02T14:28:14.116Z,54.90
2017-08-02T14:30:42.387Z,53.30
2017-08-02T14:33:10.632Z,55.10
2017-08-02T14:35:38.128Z,55.10
2017-08-02T14:38:05.616Z,54.00
2017-08-02T14:40:33.891Z,54.50
2017-08-02T14:43:02.147Z,54.60
2017-08-02T14:45:30.463Z,54.80
2017-08-02T14:47:57.951Z,54.70
2017-08-02T14:50:26.216Z,55.00
2017-08-02T14:52:54.460Z,55.50
2017-08-02T14:55:22.722Z,54.90
2017-08-02T14:57:50.202Z,54.80
2017-08-02T15:00:17.799Z,55.80
2017-08-02T15:02:45.282Z,55.20
2017-08-02T15:05:12.777Z,55.00
2017-08-02T15:07:40.256Z,54.30
2017-08-02T15:10:07.754Z,54.90
2017-08-02T15:12:35.233Z,54.90
2017-08-02T15:15:03.491Z,54.30
2017-08-02T15:17:31.734Z,55.10
2017-08-02T15:19:59.251Z,55.10
2017-08-02T15:22:26.734Z,55.20
2017-08-02T15:24:54.253Z,55.10
2017-08-02T15:27:21.748Z,55.10
2017-08-02T15:29:49.247Z,55.50
2017-08-02T15:32:16.721Z,55.30
2017-08-02T15:34:44.235Z,54.70
2017-08-02T15:37:11.715Z,55.40
2017-08-02T15:39:39.251Z,55.90
2017-08-02T15:42:06.745Z,55.40
2017-08-02T15:44:34.235Z,56.10
2017-08-02T15:47:01.724Z,56.30
2017-08-02T15:49:29.968Z,54.90
2017-08-02T15:51:58.256Z,53.30
2017-08-02T15:54:25.725Z,53.20
2017-08-02T15:56:53.220Z,53.60
2017-08-02T15:59:21.463Z,53.90
2017-08-02T16:01:48.964Z,53.90
2017-08-02T16:04:17.148Z,54.70
2017-08-02T16:06:44.640Z,54.20
2017-08-02T16:09:12.883Z,53.80
2017-08-02T16:11:41.141Z,54.30
2017-08-02T16:14:08.615Z,53.70
2017-08-02T16:16:36.182Z,54.20
2017-08-02T16:19:03.686Z,52.70
2017-08-02T16:21:31.943Z,52.30
2017-08-02T16:24:00.196Z,52.90
2017-08-02T16:26:28.455Z,52.30
2017-08-02T16:28:56.695Z,53.20
2017-08-02T16:31:24.187Z,53.10
2017-08-02T16:33:51.679Z,53.40
2017-08-02T16:36:19.202Z,53.00
2017-08-02T16:38:46.687Z,53.70
2017-08-02T16:41:14.941Z,52.20
2017-08-02T16:43:43.216Z,52.10
2017-08-02T16:46:11.666Z,52.20
2017-08-02T16:48:39.165Z,52.10
2017-08-02T16:51:06.646Z,53.30
2017-08-02T16:53:34.911Z,53.70
2017-08-02T16:56:03.285Z,54.30
2017-08-02T16:58:30.799Z,54.20
2017-08-02T17:00:58.272Z,52.90
2017-08-02T17:03:25.744Z,53.40
2017-08-02T17:05:53.252Z,53.10
2017-08-02T17:08:20.741Z,54.10
2017-08-02T17:10:48.259Z,53.70
2017-08-02T17:13:15.740Z,53.10
2017-08-02T17:15:43.235Z,53.10
2017-08-02T17:18:10.728Z,53.60
2017-08-02T17:20:38.224Z,53.90
2017-08-02T17:23:05.700Z,54.40
2017-08-02T17:25:33.197Z,55.40
2017-08-02T17:28:00.669Z,55.50
2017-08-02T17:30:28.164Z,55.50
2017-08-02T17:32:56.412Z,55.90
2017-08-02T17:35:23.928Z,55.90
2017-08-02T17:37:51.405Z,56.00
2017-08-02T17:40:18.924Z,56.60
2017-08-02T17:42:46.409Z,56.90
2017-08-02T17:45:13.892Z,57.40
2017-08-02T17:47:41.385Z,57.70
2017-08-02T17:50:08.872Z,55.80
2017-08-02T17:52:36.372Z,55.90
2017-08-02T17:55:03.842Z,55.70
2017-08-02T17:57:31.372Z,56.10
2017-08-02T17:59:58.870Z,56.30
2017-08-02T18:02:26.380Z,56.10
2017-08-02T18:04:53.878Z,56.40
2017-08-02T18:07:21.362Z,57.20
2017-08-02T18:09:48.868Z,56.80
2017-08-02T18:12:16.384Z,56.90
2017-08-02T18:14:43.880Z,58.30
2017-08-02T18:17:11.573Z,58.50
2017-08-02T18:19:39.079Z,58.60
2017-08-02T18:22:06.568Z,57.60
2017-08-02T18:24:34.077Z,58.40
2017-08-02T18:27:01.563Z,61.70
2017-08-02T18:29:29.165Z,60.20
2017-08-02T18:31:56.663Z,60.90
2017-08-02T18:34:24.189Z,60.60
2017-08-02T18:36:51.683Z,63.10
2017-08-02T18:39:19.189Z,64.60
2017-08-02T18:41:46.694Z,67.50
2017-08-02T18:44:14.244Z,69.70
2017-08-02T18:46:41.730Z,71.60
2017-08-02T18:49:09.995Z,73.40
2017-08-02T18:51:37.507Z,73.30
2017-08-02T18:54:05.010Z,73.30
2017-08-02T18:56:32.517Z,73.80
2017-08-02T18:59:00.789Z,73.10
2017-08-02T19:01:28.304Z,73.00
2017-08-02T19:03:55.788Z,73.60
2017-08-02T19:06:23.300Z,74.30
2017-08-02T19:08:50.786Z,75.10
2017-08-02T19:11:18.316Z,75.60
2017-08-02T19:13:46.649Z,75.80
2017-08-02T19:16:14.139Z,74.10
2017-08-02T19:18:41.663Z,75.60
2017-08-02T19:21:09.158Z,75.10
2017-08-02T19:23:36.637Z,73.70
2017-08-02T19:26:04.148Z,73.70
2017-08-02T19:28:31.640Z,73.50
2017-08-02T19:30:59.158Z,72.90
2017-08-02T19:33:27.413Z,71.00
2017-08-02T19:35:55.698Z,72.00
2017-08-02T19:38:23.194Z,71.20
2017-08-02T19:40:50.703Z,70.80
2017-08-02T19:43:18.187Z,70.10
2017-08-02T19:45:45.667Z,70.30
2017-08-02T19:48:13.227Z,69.90
2017-08-02T19:50:40.726Z,69.60
2017-08-02T19:53:08.228Z,69.90
2017-08-02T19:55:35.708Z,69.60
2017-08-02T19:58:03.979Z,69.50
2017-08-02T20:00:31.452Z,69.50
2017-08-02T20:02:58.981Z,69.60
2017-08-02T20:05:26.504Z,69.60
2017-08-02T20:07:54.998Z,70.60
2017-08-02T20:10:22.537Z,70.50
2017-08-02T20:12:50.041Z,70.70
2017-08-02T20:15:17.535Z,71.60
2017-08-02T20:17:45.139Z,72.30
2017-08-02T20:20:13.387Z,73.10
2017-08-02T20:22:40.899Z,73.00
2017-08-02T20:25:08.377Z,73.30
2017-08-02T20:27:35.868Z,73.70
2017-08-02T20:30:03.387Z,74.40
2017-08-02T20:32:30.892Z,74.90
2017-08-02T20:34:58.372Z,75.00
2017-08-02T20:37:25.879Z,75.30
2017-08-02T20:39:53.356Z,75.90
2017-08-02T20:42:20.864Z,76.50
2017-08-02T20:44:48.349Z,77.00
2017-08-02T20:47:15.843Z,77.50
2017-08-02T20:49:43.351Z,78.30
2017-08-02T20:52:10.834Z,78.80
2017-08-02T20:54:38.328Z,79.50
2017-08-02T20:57:05.824Z,79.90
2017-08-02T20:59:33.327Z,80.10
2017-08-02T21:02:00.814Z,80.20
2017-08-02T21:04:28.340Z,80.50
2017-08-02T21:06:55.824Z,81.00
2017-08-02T21:09:23.353Z,81.30
2017-08-02T21:11:50.846Z,81.60
2017-08-02T21:14:18.376Z,81.70
2017-08-02T21:16:45.864Z,82.20
2017-08-02T21:19:13.359Z,81.50
2017-08-02T21:21:40.840Z,81.50
2017-08-02T21:24:08.361Z,81.50
2017-08-02T21:26:35.853Z,81.50
2017-08-02T21:29:03.379Z,81.50
2017-08-02T21:31:31.636Z,81.60
2017-08-02T21:33:59.153Z,81.60
2017-08-02T21:36:26.662Z,81.70
2017-08-02T21:38:54.166Z,81.30
2017-08-02T21:41:21.662Z,81.40
2017-08-02T21:43:49.176Z,81.60
2017-08-02T21:46:16.684Z,82.00
2017-08-02T21:48:44.192Z,81.70
2017-08-02T21:51:11.688Z,81.50
2017-08-02T21:53:39.947Z,80.90
2017-08-02T21:56:08.215Z,81.30
2017-08-02T21:58:36.459Z,81.00
2017-08-02T22:01:03.975Z,81.70
2017-08-02T22:03:31.520Z,81.20
2017-08-02T22:05:59.044Z,81.20
2017-08-02T22:08:26.525Z,81.10
2017-08-02T22:10:54.028Z,80.70
2017-08-02T22:13:21.513Z,80.70
2017-08-02T22:15:49.143Z,80.60
2017-08-02T22:18:16.665Z,80.10
2017-08-02T22:20:44.172Z,80.20
2017-08-02T22:23:11.644Z,80.00
2017-08-02T22:25:39.149Z,79.30
2017-08-02T22:28:07.408Z,79.20
2017-08-02T22:30:34.908Z,79.20
2017-08-02T22:33:02.401Z,79.60
2017-08-02T22:35:29.911Z,80.00
2017-08-02T22:37:57.404Z,80.10
2017-08-02T22:40:24.905Z,80.00
2017-08-02T22:42:52.404Z,80.30
2017-08-02T22:45:19.907Z,79.10
2017-08-02T22:47:47.404Z,79.40
2017-08-02T22:50:14.918Z,78.80
2017-08-02T22:52:42.413Z,79.10
2017-08-02T22:55:09.896Z,79.60
2017-08-02T22:57:37.478Z,79.90
2017-08-02T23:00:04.956Z,80.70
2017-08-02T23:02:32.471Z,81.20
2017-08-02T23:04:59.967Z,81.10
2017-08-02T23:07:27.467Z,81.20
2017-08-02T23:09:54.973Z,81.20
2017-08-02T23:12:22.492Z,80.80
2017-08-02T23:14:49.979Z,80.60
2017-08-02T23:17:17.482Z,81.00
2017-08-02T23:19:44.980Z,81.00
2017-08-02T23:22:12.484Z,81.10
2017-08-02T23:24:39.969Z,80.90
2017-08-02T23:27:07.486Z,80.80
2017-08-02T23:29:34.971Z,80.40
2017-08-02T23:32:03.241Z,80.70
2017-08-02T23:34:30.722Z,80.60
2017-08-02T23:36:58.274Z,80.50
2017-08-02T23:39:25.764Z,80.20
2017-08-02T23:41:53.268Z,80.50
2017-08-02T23:44:20.749Z,80.90
2017-08-02T23:46:49.015Z,81.90
2017-08-02T23:49:16.512Z,81.80
2017-08-02T23:51:44.028Z,81.80
2017-08-02T23:54:11.520Z,82.30
2017-08-02T23:56:39.805Z,83.70
2017-08-02T23:59:07.289Z,83.00
